createdAt,value
2023-04-22T00:00:32.485Z,98113.84
2023-04-22T00:03:02.108Z,98103.00
2023-04-22T00:05:31.749Z,98104.03
2023-04-22T00:07:59.904Z,98103.78
2023-04-22T00:10:28.420Z,98101.28
2023-04-22T00:12:56.438Z,98108.34
2023-04-22T00:15:25.559Z,98101.78
2023-04-22T00:17:54.029Z,98109.09
2023-04-22T00:20:22.828Z,98108.84
2023-04-22T00:22:52.485Z,98105.06
2023-04-22T00:25:20.647Z,98098.25
2023-04-22T00:27:48.713Z,98096.75
2023-04-22T00:30:16.833Z,98100.53
2023-04-22T00:32:45.046Z,98093.22
2023-04-22T00:35:13.118Z,98095.75
2023-04-22T00:37:41.449Z,98094.97
2023-04-22T00:40:11.926Z,98102.28
2023-04-22T00:42:40.521Z,98104.03
2023-04-22T00:45:12.847Z,98100.91
2023-04-22T00:47:41.426Z,98097.97
2023-04-22T00:50:10.113Z,98095.69
2023-04-22T00:52:38.211Z,98097.47
2023-04-22T00:55:07.104Z,98091.16
2023-04-22T00:57:37.211Z,98089.91
2023-04-22T01:00:06.266Z,98088.38
2023-04-22T01:02:34.688Z,98101.19
2023-04-22T01:05:04.075Z,98098.91
2023-04-22T01:07:32.079Z,98099.38
2023-04-22T01:10:00.764Z,98098.59
2023-04-22T01:12:28.837Z,98099.81
2023-04-22T01:14:58.494Z,98093.25
2023-04-22T01:17:26.653Z,98099.28
2023-04-22T01:19:55.724Z,98079.09
2023-04-22T01:22:27.404Z,98097.81
2023-04-22T01:24:56.954Z,98099.97
2023-04-22T01:27:25.023Z,98093.53
2023-04-22T01:29:53.628Z,98099.84
2023-04-22T01:32:21.822Z,98106.47
2023-04-22T01:34:50.427Z,98097.66
2023-04-22T01:37:20.039Z,98110.94
2023-04-22T01:39:48.927Z,98098.94
2023-04-22T01:42:18.804Z,98102.34
2023-04-22T01:44:47.299Z,98105.25
2023-04-22T01:47:15.808Z,98110.28
2023-04-22T01:49:43.880Z,98107.75
2023-04-22T01:52:13.897Z,98104.78
2023-04-22T01:54:42.420Z,98095.22
2023-04-22T01:57:16.406Z,98103.84
2023-04-22T01:59:46.366Z,98093.53
2023-04-22T02:02:16.184Z,98094.44
2023-04-22T02:04:44.378Z,98096.25
2023-04-22T02:07:12.495Z,98091.53
2023-04-22T02:09:40.737Z,98096.66
2023-04-22T02:12:09.190Z,98088.91
2023-04-22T02:14:37.225Z,98097.19
2023-04-22T02:17:06.687Z,98113.69
2023-04-22T02:19:34.795Z,98098.13
2023-04-22T02:22:03.015Z,98098.44
2023-04-22T02:24:31.619Z,98096.53
2023-04-22T02:27:00.332Z,98096.69
2023-04-22T02:29:29.397Z,98098.91
2023-04-22T02:31:59.980Z,98104.78
2023-04-22T02:34:29.686Z,98100.69
2023-04-22T02:36:57.730Z,98096.88
2023-04-22T02:39:26.545Z,98092.78
2023-04-22T02:41:54.688Z,98090.88
2023-04-22T02:44:22.850Z,98092.44
2023-04-22T02:46:50.943Z,98098.50
2023-04-22T02:49:19.415Z,98095.66
2023-04-22T02:51:48.822Z,98094.22
2023-04-22T02:54:16.975Z,98090.88
2023-04-22T02:56:45.031Z,98089.47
2023-04-22T02:59:13.020Z,98098.38
2023-04-22T03:01:41.206Z,98100.63
2023-04-22T03:04:14.387Z,98095.06
2023-04-22T03:06:42.768Z,98097.91
2023-04-22T03:09:12.345Z,98089.31
2023-04-22T03:11:40.506Z,98094.13
2023-04-22T03:14:08.514Z,98091.09
2023-04-22T03:16:36.700Z,98098.41
2023-04-22T03:19:06.651Z,98101.88
2023-04-22T03:21:34.738Z,98098.72
2023-04-22T03:24:03.415Z,98096.50
2023-04-22T03:26:35.702Z,98098.50
2023-04-22T03:29:05.043Z,98095.91
2023-04-22T03:31:33.229Z,98096.53
2023-04-22T03:34:01.377Z,98100.66
2023-04-22T03:36:32.089Z,98096.16
2023-04-22T03:39:00.202Z,98095.38
2023-04-22T03:41:29.863Z,98107.78
2023-04-22T03:44:01.620Z,98102.53
2023-04-22T03:46:31.470Z,98102.84
2023-04-22T03:49:13.548Z,98108.56
2023-04-22T03:51:41.777Z,98110.97
2023-04-22T03:54:13.894Z,98108.41
2023-04-22T03:56:48.486Z,98104.91
2023-04-22T03:59:19.010Z,98104.31
2023-04-22T04:01:48.255Z,98111.16
2023-04-22T04:04:20.550Z,98110.97
2023-04-22T04:06:54.225Z,98107.50
2023-04-22T04:09:22.461Z,98100.97
2023-04-22T04:11:50.473Z,98103.78
2023-04-22T04:14:20.611Z,98113.00
2023-04-22T04:16:51.467Z,98110.13
2023-04-22T04:19:28.489Z,98124.78
2023-04-22T04:21:57.158Z,98125.25
2023-04-22T04:24:28.432Z,98117.28
2023-04-22T04:27:03.281Z,98116.94
2023-04-22T04:29:39.838Z,98111.09
2023-04-22T04:32:14.307Z,98124.72
2023-04-22T04:34:43.750Z,98123.88
2023-04-22T04:37:12.774Z,98128.69
2023-04-22T04:40:04.605Z,98128.72
2023-04-22T04:42:43.804Z,98129.50
2023-04-22T04:45:19.320Z,98123.41
2023-04-22T04:47:50.826Z,98125.28
2023-04-22T04:50:24.123Z,98117.59
2023-04-22T04:52:53.009Z,98120.31
2023-04-22T04:55:26.590Z,98115.63
2023-04-22T04:57:55.588Z,98116.34
2023-04-22T05:00:25.261Z,98125.38
2023-04-22T05:02:53.717Z,98124.84
2023-04-22T05:05:21.849Z,98120.16
2023-04-22T05:07:51.768Z,98123.56
2023-04-22T05:10:20.342Z,98125.13
2023-04-22T05:12:48.747Z,98121.16
2023-04-22T05:15:22.054Z,98127.72
2023-04-22T05:17:51.612Z,98115.75
2023-04-22T05:20:19.724Z,98128.56
2023-04-22T05:22:47.861Z,98127.78
2023-04-22T05:25:16.961Z,98133.25
2023-04-22T05:27:54.121Z,98131.81
2023-04-22T05:30:23.120Z,98130.84
2023-04-22T05:32:52.494Z,98132.28
2023-04-22T05:35:20.782Z,98129.34
2023-04-22T05:37:48.875Z,98134.28
2023-04-22T05:40:17.036Z,98139.34
2023-04-22T05:42:45.190Z,98139.53
2023-04-22T05:45:13.587Z,98132.41
2023-04-22T05:47:41.765Z,98136.56
2023-04-22T05:50:11.953Z,98131.22
2023-04-22T05:52:55.542Z,98133.91
2023-04-22T05:55:23.669Z,98141.91
2023-04-22T05:57:51.874Z,98134.78
2023-04-22T06:00:38.034Z,98131.78
2023-04-22T06:03:26.581Z,98127.53
2023-04-22T06:05:56.384Z,98129.84
2023-04-22T06:08:24.801Z,98129.38
2023-04-22T06:10:52.791Z,98129.47
2023-04-22T06:13:22.083Z,98137.25
2023-04-22T06:15:50.489Z,98132.22
2023-04-22T06:18:18.654Z,98128.25
2023-04-22T06:20:47.039Z,98126.97
2023-04-22T06:23:16.575Z,98127.72
2023-04-22T06:25:44.862Z,98134.53
2023-04-22T06:28:13.040Z,98136.06
2023-04-22T06:30:41.976Z,98140.81
2023-04-22T06:33:10.154Z,98141.78
2023-04-22T06:35:38.664Z,98139.78
2023-04-22T06:38:06.907Z,98132.91
2023-04-22T06:40:44.104Z,98140.44
2023-04-22T06:43:22.458Z,98136.94
2023-04-22T06:46:11.217Z,98138.69
2023-04-22T06:48:58.184Z,98132.25
2023-04-22T06:51:46.582Z,98145.16
2023-04-22T06:54:14.901Z,98139.34
2023-04-22T06:56:44.468Z,98137.63
2023-04-22T06:59:12.595Z,98148.75
2023-04-22T07:01:41.075Z,98143.84
2023-04-22T07:04:09.292Z,98143.88
2023-04-22T07:06:37.430Z,98145.53
2023-04-22T07:09:05.605Z,98136.63
2023-04-22T07:11:34.225Z,98142.38
2023-04-22T07:14:11.992Z,98142.03
2023-04-22T07:16:40.218Z,98142.38
2023-04-22T07:19:08.272Z,98146.16
2023-04-22T07:21:36.404Z,98149.78
2023-04-22T07:24:04.457Z,98149.16
2023-04-22T07:26:34.484Z,98138.63
2023-04-22T07:29:02.595Z,98145.78
2023-04-22T07:31:32.054Z,98143.34
2023-04-22T07:34:00.135Z,98146.66
2023-04-22T07:36:28.191Z,98144.09
2023-04-22T07:38:56.406Z,98150.44
2023-04-22T07:41:24.656Z,98143.91
2023-04-22T07:43:52.989Z,98144.38
2023-04-22T07:46:21.269Z,98143.75
2023-04-22T07:48:50.733Z,98144.72
2023-04-22T07:51:18.783Z,98153.56
2023-04-22T07:53:46.863Z,98146.91
2023-04-22T07:56:15.056Z,98143.69
2023-04-22T07:58:43.093Z,98142.06
2023-04-22T08:01:11.141Z,98140.13
2023-04-22T08:03:39.395Z,98149.22
2023-04-22T08:06:09.281Z,98141.97
2023-04-22T08:08:37.390Z,98152.19
2023-04-22T08:11:05.838Z,98150.88
2023-04-22T08:13:33.907Z,98141.25
2023-04-22T08:16:03.228Z,98144.16
2023-04-22T08:18:31.421Z,98149.41
2023-04-22T08:20:59.861Z,98152.41
2023-04-22T08:23:29.225Z,98157.00
2023-04-22T08:25:57.352Z,98149.38
2023-04-22T08:28:25.447Z,98156.22
2023-04-22T08:30:53.582Z,98149.28
2023-04-22T08:33:21.692Z,98145.63
2023-04-22T08:35:49.811Z,98152.56
2023-04-22T08:38:17.833Z,98156.84
2023-04-22T08:40:47.849Z,98157.84
2023-04-22T08:43:16.236Z,98149.94
2023-04-22T08:45:44.487Z,98153.88
2023-04-22T08:48:13.865Z,98146.69
2023-04-22T08:50:42.511Z,98145.16
2023-04-22T08:53:10.607Z,98153.09
2023-04-22T08:55:39.295Z,98150.84
2023-04-22T08:58:08.914Z,98149.44
2023-04-22T09:00:37.014Z,98151.31
2023-04-22T09:03:07.945Z,98156.09
2023-04-22T09:05:38.605Z,98151.22
2023-04-22T09:08:07.914Z,98153.94
2023-04-22T09:10:38.523Z,98143.56
2023-04-22T09:13:09.364Z,98142.41
2023-04-22T09:15:37.550Z,98149.75
2023-04-22T09:18:06.114Z,98144.09
2023-04-22T09:20:34.108Z,98141.47
2023-04-22T09:23:05.506Z,98147.06
2023-04-22T09:25:35.667Z,98135.63
2023-04-22T09:28:03.692Z,98133.66
2023-04-22T09:30:35.937Z,98138.09
2023-04-22T09:33:06.009Z,98140.88
2023-04-22T09:35:35.410Z,98132.50
2023-04-22T09:38:06.395Z,98133.81
2023-04-22T09:40:35.061Z,98124.22
2023-04-22T09:43:04.886Z,98129.66
2023-04-22T09:45:36.538Z,98120.84
2023-04-22T09:48:09.847Z,98117.72
2023-04-22T09:50:39.104Z,98112.66
2023-04-22T09:53:09.053Z,98118.41
2023-04-22T09:55:41.439Z,98112.09
2023-04-22T09:58:12.316Z,98116.50
2023-04-22T10:00:48.785Z,98110.41
2023-04-22T10:03:17.905Z,98113.25
2023-04-22T10:05:46.468Z,98107.66
2023-04-22T10:08:16.921Z,98105.19
2023-04-22T10:10:47.419Z,98102.25
2023-04-22T10:13:15.880Z,98114.38
2023-04-22T10:15:50.641Z,98108.38
2023-04-22T10:18:22.902Z,98102.03
2023-04-22T10:20:52.349Z,98096.97
2023-04-22T10:23:23.637Z,98090.41
2023-04-22T10:25:55.049Z,98098.88
2023-04-22T10:28:24.895Z,98101.28
2023-04-22T10:30:55.110Z,98088.75
2023-04-22T10:33:40.113Z,98095.09
2023-04-22T10:36:10.832Z,98088.34
2023-04-22T10:38:40.627Z,98083.84
2023-04-22T10:41:14.354Z,98093.78
2023-04-22T10:43:43.334Z,98080.88
2023-04-22T10:46:53.190Z,98080.47
2023-04-22T10:49:24.495Z,98080.69
2023-04-22T10:51:53.893Z,98079.72
2023-04-22T10:55:00.688Z,98075.25
2023-04-22T10:57:42.930Z,98079.00
2023-04-22T11:03:11.980Z,98074.44
2023-04-22T11:05:42.099Z,98071.69
2023-04-22T11:08:14.376Z,98061.38
2023-04-22T11:10:45.038Z,98069.22
2023-04-22T11:13:15.996Z,98071.47
2023-04-22T11:15:45.947Z,98071.78
2023-04-22T11:18:20.869Z,98064.16
2023-04-22T11:20:51.427Z,98066.13
2023-04-22T11:23:22.163Z,98060.53
2023-04-22T11:25:55.905Z,98059.91
2023-04-22T11:28:24.284Z,98055.00
2023-04-22T11:30:52.785Z,98041.69
2023-04-22T11:33:21.717Z,98050.69
2023-04-22T11:35:52.694Z,98039.03
2023-04-22T11:38:20.666Z,98047.38
2023-04-22T11:40:49.115Z,98047.13
2023-04-22T11:43:18.726Z,98031.19
2023-04-22T11:45:47.171Z,98029.63
2023-04-22T11:48:16.717Z,98027.81
2023-04-22T11:50:45.580Z,98026.97
2023-04-22T11:53:19.478Z,98030.81
2023-04-22T11:55:51.327Z,98019.03
2023-04-22T11:58:21.557Z,98027.81
2023-04-22T12:00:51.657Z,98022.38
2023-04-22T12:03:21.353Z,98018.13
2023-04-22T12:05:54.290Z,98015.25
2023-04-22T12:08:26.100Z,98012.41
2023-04-22T12:10:55.976Z,98019.38
2023-04-22T12:13:25.986Z,98015.69
2023-04-22T12:15:55.655Z,98013.25
2023-04-22T12:18:30.781Z,98017.56
2023-04-22T12:21:01.218Z,98001.28
2023-04-22T12:23:30.610Z,98009.22
2023-04-22T12:25:58.864Z,98014.84
2023-04-22T12:28:26.863Z,98002.50
2023-04-22T12:30:54.990Z,98013.66
2023-04-22T12:33:23.073Z,98007.59
2023-04-22T12:35:52.705Z,98012.59
2023-04-22T12:38:21.294Z,98001.38
2023-04-22T12:40:51.130Z,97991.75
2023-04-22T12:43:26.091Z,98005.91
2023-04-22T12:45:54.264Z,98005.09
2023-04-22T12:48:22.299Z,97991.59
2023-04-22T12:50:50.346Z,98000.06
2023-04-22T12:53:18.467Z,97992.19
2023-04-22T12:55:46.596Z,97988.97
2023-04-22T12:58:16.152Z,97980.69
2023-04-22T13:00:44.281Z,97990.25
2023-04-22T13:03:12.552Z,97992.81
2023-04-22T13:05:40.818Z,97992.31
2023-04-22T13:08:08.893Z,97987.88
2023-04-22T13:10:37.087Z,97978.72
2023-04-22T13:13:17.755Z,97977.56
2023-04-22T13:15:53.341Z,97969.97
2023-04-22T13:18:22.851Z,97973.66
2023-04-22T13:20:51.329Z,97966.13
2023-04-22T13:23:21.857Z,97972.16
2023-04-22T13:25:50.667Z,97964.84
2023-04-22T13:28:18.676Z,97970.13
2023-04-22T13:30:48.406Z,97964.41
2023-04-22T13:33:16.476Z,97962.16
2023-04-22T13:35:44.597Z,97963.97
2023-04-22T13:38:12.640Z,97958.88
2023-04-22T13:40:40.810Z,97960.91
2023-04-22T13:43:09.813Z,97957.75
2023-04-22T13:45:38.142Z,97950.81
2023-04-22T13:48:07.757Z,97956.50
2023-04-22T13:50:35.835Z,97955.69
2023-04-22T13:53:04.917Z,97963.56
2023-04-22T13:55:33.006Z,97956.38
2023-04-22T13:58:01.274Z,97957.31
2023-04-22T14:00:29.711Z,97957.63
2023-04-22T14:02:58.107Z,97957.09
2023-04-22T14:05:27.865Z,97949.06
2023-04-22T14:07:55.955Z,97952.41
2023-04-22T14:10:25.612Z,97951.69
2023-04-22T14:12:55.371Z,97953.41
2023-04-22T14:15:23.391Z,97949.78
2023-04-22T14:17:51.394Z,97941.38
2023-04-22T14:20:19.633Z,97953.66
2023-04-22T14:22:49.063Z,97937.66
2023-04-22T14:25:17.169Z,97936.03
2023-04-22T14:27:45.191Z,97937.31
2023-04-22T14:30:14.808Z,97925.00
2023-04-22T14:32:42.962Z,97936.06
2023-04-22T14:35:11.683Z,97929.91
2023-04-22T14:37:41.490Z,97930.69
2023-04-22T14:40:13.273Z,97934.75
2023-04-22T14:42:42.118Z,97932.47
2023-04-22T14:45:11.034Z,97933.69
2023-04-22T14:47:39.269Z,97926.56
2023-04-22T14:50:08.247Z,97925.53
2023-04-22T14:52:36.397Z,97930.19
2023-04-22T14:55:15.535Z,97918.25
2023-04-22T14:57:53.348Z,97917.28
2023-04-22T15:00:21.895Z,97920.97
2023-04-22T15:02:50.331Z,97918.13
2023-04-22T15:05:18.546Z,97919.94
2023-04-22T15:07:46.661Z,97919.13
2023-04-22T15:10:16.813Z,97916.50
2023-04-22T15:12:45.638Z,97920.19
2023-04-22T15:15:16.223Z,97915.19
2023-04-22T15:17:44.987Z,97911.56
2023-04-22T15:20:14.255Z,97908.97
2023-04-22T15:22:42.435Z,97911.50
2023-04-22T15:25:11.581Z,97911.22
2023-04-22T15:27:40.499Z,97911.22
2023-04-22T15:30:10.918Z,97910.00
2023-04-22T15:32:40.790Z,97898.97
2023-04-22T15:35:09.675Z,97903.19
2023-04-22T15:37:37.830Z,97910.19
2023-04-22T15:40:07.730Z,97911.78
2023-04-22T15:42:36.055Z,97907.16
2023-04-22T15:45:04.508Z,97900.06
2023-04-22T15:47:32.816Z,97905.59
2023-04-22T15:50:06.630Z,97908.81
2023-04-22T15:52:35.012Z,97895.28
2023-04-22T15:55:03.087Z,97903.44
2023-04-22T15:57:34.752Z,97903.28
2023-04-22T16:00:11.733Z,97908.13
2023-04-22T16:02:43.710Z,97907.66
2023-04-22T16:05:14.693Z,97903.19
2023-04-22T16:07:43.085Z,97901.06
2023-04-22T16:10:12.113Z,97906.28
2023-04-22T16:12:40.183Z,97899.66
2023-04-22T16:15:09.672Z,97895.91
2023-04-22T16:17:38.396Z,97896.44
2023-04-22T16:20:07.916Z,97896.81
2023-04-22T16:22:37.524Z,97902.16
2023-04-22T16:25:06.515Z,97895.69
2023-04-22T16:27:34.588Z,97888.88
2023-04-22T16:30:02.701Z,97889.53
2023-04-22T16:32:30.947Z,97896.19
2023-04-22T16:34:59.074Z,97900.88
2023-04-22T16:37:27.368Z,97884.31
2023-04-22T16:39:56.774Z,97886.31
2023-04-22T16:42:24.927Z,97891.50
2023-04-22T16:44:57.915Z,97885.31
2023-04-22T16:47:27.055Z,97880.44
2023-04-22T16:49:55.168Z,97884.59
2023-04-22T16:52:23.194Z,97887.94
2023-04-22T16:54:51.584Z,97892.72
2023-04-22T16:57:21.047Z,97887.53
2023-04-22T16:59:49.164Z,97887.59
2023-04-22T17:02:17.328Z,97887.03
2023-04-22T17:04:45.491Z,97887.94
2023-04-22T17:07:13.513Z,97885.94
2023-04-22T17:09:41.884Z,97884.34
2023-04-22T17:12:10.602Z,97882.97
2023-04-22T17:14:40.164Z,97891.38
2023-04-22T17:17:08.285Z,97886.34
2023-04-22T17:19:36.540Z,97891.97
2023-04-22T17:22:04.718Z,97886.19
2023-04-22T17:24:32.810Z,97886.34
2023-04-22T17:27:01.738Z,97887.34
2023-04-22T17:29:29.754Z,97891.28
2023-04-22T17:31:59.213Z,97892.13
2023-04-22T17:34:27.949Z,97892.22
2023-04-22T17:36:55.933Z,97895.31
2023-04-22T17:39:24.141Z,97895.63
2023-04-22T17:41:52.265Z,97897.06
2023-04-22T17:44:20.517Z,97906.25
2023-04-22T17:46:48.581Z,97903.75
2023-04-22T17:49:17.995Z,97899.75
2023-04-22T17:51:46.148Z,97903.94
2023-04-22T17:54:14.256Z,97903.31
2023-04-22T17:56:42.358Z,97907.00
2023-04-22T17:59:11.408Z,97907.06
2023-04-22T18:01:39.981Z,97910.63
2023-04-22T18:04:08.311Z,97914.69
2023-04-22T18:06:38.033Z,97911.34
2023-04-22T18:09:06.281Z,97916.09
2023-04-22T18:11:34.330Z,97921.69
2023-04-22T18:14:02.540Z,97915.38
2023-04-22T18:16:30.722Z,97925.50
2023-04-22T18:18:59.856Z,97922.91
2023-04-22T18:21:29.374Z,97921.44
2023-04-22T18:23:59.230Z,97925.88
2023-04-22T18:26:27.540Z,97923.25
2023-04-22T18:28:55.609Z,97928.09
2023-04-22T18:31:23.782Z,97926.97
2023-04-22T18:33:51.800Z,97927.16
2023-04-22T18:36:19.970Z,97923.38
2023-04-22T18:38:48.044Z,97924.72
2023-04-22T18:41:17.462Z,97931.94
2023-04-22T18:43:47.168Z,97928.75
2023-04-22T18:46:15.301Z,97926.81
2023-04-22T18:48:43.586Z,97931.13
2023-04-22T18:51:12.388Z,97934.78
2023-04-22T18:53:40.423Z,97927.75
2023-04-22T18:56:08.519Z,97933.97
2023-04-22T18:58:37.927Z,97932.22
2023-04-22T19:01:06.559Z,97932.59
2023-04-22T19:03:34.827Z,97928.06
2023-04-22T19:06:02.963Z,97929.44
2023-04-22T19:08:31.115Z,97929.13
2023-04-22T19:10:59.422Z,97922.25
2023-04-22T19:13:29.582Z,97923.19
2023-04-22T19:16:00.007Z,97923.81
2023-04-22T19:18:28.292Z,97924.44
2023-04-22T19:20:56.324Z,97927.03
2023-04-22T19:23:24.407Z,97922.31
2023-04-22T19:25:53.217Z,97919.13
2023-04-22T19:28:21.332Z,97925.63
2023-04-22T19:30:49.389Z,97919.75
2023-04-22T19:33:19.074Z,97922.91
2023-04-22T19:35:47.324Z,97917.06
2023-04-22T19:38:19.071Z,97922.56
2023-04-22T19:40:47.459Z,97916.34
2023-04-22T19:43:17.162Z,97918.88
2023-04-22T19:45:45.503Z,97918.47
2023-04-22T19:48:14.020Z,97916.75
2023-04-22T19:50:44.854Z,97913.66
2023-04-22T19:53:13.868Z,97915.59
2023-04-22T19:55:44.204Z,97912.41
2023-04-22T19:58:12.425Z,97911.38
2023-04-22T20:00:42.554Z,97913.97
2023-04-22T20:03:13.112Z,97906.53
2023-04-22T20:05:44.317Z,97907.63
2023-04-22T20:08:14.750Z,97906.66
2023-04-22T20:10:44.363Z,97918.94
2023-04-22T20:13:12.494Z,97908.94
2023-04-22T20:15:40.856Z,97911.44
2023-04-22T20:18:09.553Z,97911.25
2023-04-22T20:20:38.854Z,97908.13
2023-04-22T20:23:10.569Z,97911.03
2023-04-22T20:25:42.650Z,97905.03
2023-04-22T20:28:11.934Z,97902.16
2023-04-22T20:30:40.929Z,97903.97
2023-04-22T20:33:12.204Z,97902.47
2023-04-22T20:35:41.166Z,97909.88
2023-04-22T20:38:13.436Z,97903.94
2023-04-22T20:40:42.212Z,97902.78
2023-04-22T20:43:10.796Z,97906.31
2023-04-22T20:45:39.040Z,97899.56
2023-04-22T20:48:07.178Z,97903.84
2023-04-22T20:50:35.309Z,97905.47
2023-04-22T20:53:05.249Z,97895.69
2023-04-22T20:55:36.858Z,97908.84
2023-04-22T20:58:05.380Z,97904.81
2023-04-22T21:00:33.504Z,97901.28
2023-04-22T21:03:02.496Z,97897.06
2023-04-22T21:05:30.884Z,97896.94
2023-04-22T21:08:01.836Z,97901.78
2023-04-22T21:10:30.775Z,97892.47
2023-04-22T21:13:00.488Z,97890.50
2023-04-22T21:15:29.605Z,97891.34
2023-04-22T21:17:59.585Z,97895.53
2023-04-22T21:20:30.879Z,97893.28
2023-04-22T21:22:59.766Z,97892.75
2023-04-22T21:25:30.000Z,97890.91
2023-04-22T21:27:58.658Z,97888.28
2023-04-22T21:30:28.732Z,97891.19
2023-04-22T21:32:56.813Z,97884.13
2023-04-22T21:35:25.664Z,97893.38
2023-04-22T21:37:54.184Z,97890.69
2023-04-22T21:40:22.350Z,97897.13
2023-04-22T21:42:50.573Z,97897.44
2023-04-22T21:45:18.797Z,97882.59
2023-04-22T21:47:48.418Z,97887.94
2023-04-22T21:50:17.254Z,97895.31
2023-04-22T21:52:46.136Z,97885.84
2023-04-22T21:55:14.177Z,97873.88
2023-04-22T21:57:42.226Z,97886.16
2023-04-22T22:00:15.479Z,97886.78
2023-04-22T22:02:43.859Z,97889.41
2023-04-22T22:05:14.921Z,97888.13
2023-04-22T22:07:45.142Z,97889.94
2023-04-22T22:10:15.413Z,97886.16
2023-04-22T22:12:43.531Z,97887.91
2023-04-22T22:15:12.579Z,97893.84
2023-04-22T22:17:40.730Z,97890.06
2023-04-22T22:20:12.260Z,97882.03
2023-04-22T22:22:42.198Z,97883.09
2023-04-22T22:25:11.981Z,97892.19
2023-04-22T22:27:41.842Z,97887.59
2023-04-22T22:30:10.687Z,97890.38
2023-04-22T22:32:38.837Z,97893.13
2023-04-22T22:35:07.980Z,97892.66
2023-04-22T22:37:36.492Z,97885.25
2023-04-22T22:40:07.166Z,97892.09
2023-04-22T22:42:36.196Z,97889.31
2023-04-22T22:45:05.281Z,97894.63
2023-04-22T22:47:33.604Z,97890.63
2023-04-22T22:50:01.778Z,97891.72
2023-04-22T22:52:30.794Z,97892.47
2023-04-22T22:54:58.832Z,97888.94
2023-04-22T22:57:28.272Z,97887.28
2023-04-22T22:59:56.303Z,97892.88
2023-04-22T23:02:24.546Z,97889.63
2023-04-22T23:04:53.968Z,97888.19
2023-04-22T23:07:22.449Z,97888.59
2023-04-22T23:09:50.558Z,97896.59
2023-04-22T23:12:18.597Z,97889.78
2023-04-22T23:14:48.012Z,97894.88
2023-04-22T23:17:17.394Z,97894.41
2023-04-22T23:19:46.463Z,97892.16
2023-04-22T23:22:15.362Z,97887.41
2023-04-22T23:24:44.005Z,97888.66
2023-04-22T23:27:12.572Z,97891.25
2023-04-22T23:29:42.199Z,97891.25
2023-04-22T23:32:16.317Z,97892.53
2023-04-22T23:34:47.019Z,97887.50
2023-04-22T23:37:16.287Z,97885.28
2023-04-22T23:39:44.464Z,97884.03
2023-04-22T23:42:12.528Z,97882.06
2023-04-22T23:44:40.668Z,97877.78
2023-04-22T23:47:08.865Z,97880.00
2023-04-22T23:49:38.365Z,97881.31
2023-04-22T23:52:08.050Z,97869.47
2023-04-22T23:54:36.534Z,97870.53
2023-04-22T23:57:05.098Z,97871.53
2023-04-22T23:59:33.833Z,97872.59
